Time,TemperatureF,DewpointF,PressureIn,WindDirection,WindDirectionDegrees,WindSpeedMPH,WindSpeedGustMPH,Humidity,HourlyPrecipIn,Conditions,Clouds,dailyrainin,SoftwareType,DateUTC
2013-04-24 00:03:00,44.8,38.0,30.23,WSW,243,0.0,0.0,77,0.00,,CLR,-99.99,VWS V12.07,2013-04-24 07:03:00,
2013-04-24 01:03:00,43.3,36.9,30.24,WSW,241,1.0,3.0,78,0.00,,CLR,-99.99,VWS V12.07,2013-04-24 08:03:00,
2013-04-24 02:03:00,42.9,35.9,30.24,WSW,250,0.0,0.0,76,0.00,,CLR,-99.99,VWS V12.07,2013-04-24 09:03:00,
2013-04-24 03:03:00,41.6,35.9,30.24,WSW,250,0.0,0.0,80,0.00,,CLR,-99.99,VWS V12.07,2013-04-24 10:03:00,
2013-04-24 04:03:00,40.3,35.6,30.25,WSW,244,1.0,1.0,83,0.00,,CLR,-99.99,VWS V12.07,2013-04-24 11:03:00,
2013-04-24 05:03:00,40.9,34.9,30.25,WSW,244,0.0,0.0,79,0.00,,CLR,-99.99,VWS V12.07,2013-04-24 12:03:00,
2013-04-24 06:03:00,40.6,34.3,30.24,WSW,244,2.0,5.0,78,0.00,,CLR,-99.99,VWS V12.07,2013-04-24 13:03:00,
2013-04-24 07:03:00,41.6,34.3,30.25,West,270,2.0,2.0,75,0.00,,CLR,-99.99,VWS V12.07,2013-04-24 14:03:00,
2013-04-24 08:03:00,48.0,36.4,30.24,WSW,253,1.0,2.0,64,0.00,,CLR,-99.99,VWS V12.07,2013-04-24 15:03:00,
2013-04-24 09:03:00,52.0,37.2,30.23,WSW,241,1.0,6.0,57,0.00,,CLR,-99.99,VWS V12.07,2013-04-24 16:03:00,
2013-04-24 10:03:00,57.6,38.6,30.21,West,265,1.0,2.0,49,0.00,,CLR,-99.99,VWS V12.07,2013-04-24 17:03:00,
2013-04-24 11:03:00,57.8,39.3,30.20,East,88,0.0,5.0,50,0.00,,CLR,-99.99,VWS V12.07,2013-04-24 18:03:00,
2013-04-24 12:03:00,59.0,37.1,30.18,NE,49,2.0,6.0,44,0.00,,CLR,-99.99,VWS V12.07,2013-04-24 19:03:00,
2013-04-24 13:04:00,61.5,36.3,30.15,East,83,3.0,10.0,39,0.00,,CLR,-99.99,VWS V12.07,2013-04-24 20:04:00,
2013-04-24 14:03:00,64.2,38.1,30.12,WSW,241,3.0,6.0,38,0.00,,CLR,-99.99,VWS V12.07,2013-04-24 21:03:00,
2013-04-24 15:03:00,64.8,31.0,30.09,ENE,75,6.0,12.0,28,0.00,,CLR,-99.99,VWS V12.07,2013-04-24 22:03:00,
2013-04-24 16:03:00,66.0,29.2,30.07,ENE,73,1.0,10.0,25,0.00,,CLR,-99.99,VWS V12.07,2013-04-24 23:03:00,
2013-04-24 17:03:00,66.3,29.5,30.04,ENE,76,7.0,9.0,25,0.00,,CLR,-99.99,VWS V12.07,2013-04-25 00:03:00,
2013-04-24 18:03:00,66.6,33.4,30.01,ENE,78,1.0,5.0,29,0.00,,CLR,-99.99,VWS V12.07,2013-04-25 01:03:00,
2013-04-24 19:03:00,63.7,31.7,30.01,East,88,4.0,5.0,30,0.00,,CLR,-99.99,VWS V12.07,2013-04-25 02:03:00,
2013-04-24 20:03:00,59.9,35.5,29.99,ENE,72,0.0,0.0,40,0.00,,CLR,-99.99,VWS V12.07,2013-04-25 03:03:00,
2013-04-24 21:04:00,56.6,35.5,29.98,ENE,75,0.0,3.0,45,0.00,,CLR,-99.99,VWS V12.07,2013-04-25 04:04:00,
2013-04-24 22:03:00,53.8,34.1,29.98,ENE,78,0.0,0.0,47,0.00,,CLR,-99.99,VWS V12.07,2013-04-25 05:03:00,
2013-04-24 23:04:00,51.1,36.4,29.97,SW,232,0.0,0.0,57,0.00,,CLR,-99.99,VWS V12.07,2013-04-25 06:04:00,